createdAt,value
2017-07-29T00:01:43.974Z,77.50
2017-07-29T00:04:11.509Z,77.40
2017-07-29T00:06:39.076Z,77.20
2017-07-29T00:09:06.602Z,77.30
2017-07-29T00:11:34.175Z,76.60
2017-07-29T00:14:01.712Z,77.40
2017-07-29T00:16:29.316Z,76.90
2017-07-29T00:18:56.851Z,77.20
2017-07-29T00:21:24.529Z,77.50
2017-07-29T00:23:52.094Z,77.80
2017-07-29T00:26:19.683Z,77.60
2017-07-29T00:28:47.310Z,78.20
2017-07-29T00:31:15.656Z,78.30
2017-07-29T00:33:43.186Z,78.30
2017-07-29T00:36:10.720Z,78.80
2017-07-29T00:38:38.297Z,78.70
2017-07-29T00:41:05.832Z,78.40
2017-07-29T00:43:33.392Z,78.50
2017-07-29T00:46:01.688Z,79.10
2017-07-29T00:48:29.259Z,78.60
2017-07-29T00:50:56.812Z,78.40
2017-07-29T00:53:24.396Z,78.50
2017-07-29T00:55:51.975Z,78.80
2017-07-29T00:58:19.560Z,78.60
2017-07-29T01:00:47.095Z,78.90
2017-07-29T01:03:14.676Z,78.90
2017-07-29T01:05:43.056Z,78.60
2017-07-29T01:08:10.736Z,78.50
2017-07-29T01:10:38.438Z,78.80
2017-07-29T01:13:06.762Z,78.20
2017-07-29T01:15:34.588Z,78.20
2017-07-29T01:18:02.182Z,78.50
2017-07-29T01:20:29.836Z,78.60
2017-07-29T01:22:57.457Z,78.70
2017-07-29T01:25:25.124Z,78.80
2017-07-29T01:27:52.756Z,78.90
2017-07-29T01:30:20.386Z,78.80
2017-07-29T01:32:48.061Z,79.00
2017-07-29T01:35:15.675Z,79.20
2017-07-29T01:37:43.364Z,78.90
2017-07-29T01:40:10.977Z,79.10
2017-07-29T01:42:38.648Z,79.10
2017-07-29T01:45:06.280Z,79.40
2017-07-29T01:47:33.939Z,79.40
2017-07-29T01:50:01.584Z,79.70
2017-07-29T01:52:29.228Z,79.70
2017-07-29T01:54:56.866Z,79.70
2017-07-29T01:57:24.504Z,79.90
2017-07-29T01:59:52.188Z,79.80
2017-07-29T02:02:19.846Z,79.90
2017-07-29T02:04:47.523Z,80.00
2017-07-29T02:07:15.117Z,80.30
2017-07-29T02:09:42.775Z,80.00
2017-07-29T02:12:10.384Z,79.90
2017-07-29T02:14:38.038Z,80.00
2017-07-29T02:17:05.674Z,80.60
2017-07-29T02:19:34.223Z,80.20
2017-07-29T02:22:01.826Z,79.60
2017-07-29T02:24:29.425Z,79.20
2017-07-29T02:26:56.992Z,79.60
2017-07-29T02:29:24.529Z,79.60
2017-07-29T02:31:52.094Z,79.20
2017-07-29T02:34:19.623Z,79.60
2017-07-29T02:36:47.187Z,79.20
2017-07-29T02:39:14.725Z,79.50
2017-07-29T02:41:42.296Z,79.60
2017-07-29T02:44:09.831Z,80.10
2017-07-29T02:46:37.442Z,80.80
2017-07-29T02:49:04.966Z,80.50
2017-07-29T02:51:32.536Z,80.70
2017-07-29T02:54:00.128Z,80.80
2017-07-29T02:56:28.472Z,80.90
2017-07-29T02:58:55.999Z,80.90
2017-07-29T03:01:23.575Z,81.20
2017-07-29T03:03:51.192Z,81.30
2017-07-29T03:06:18.856Z,82.00
2017-07-29T03:08:46.379Z,81.90
2017-07-29T03:11:13.943Z,81.70
2017-07-29T03:13:41.471Z,81.80
2017-07-29T03:16:09.059Z,82.10
2017-07-29T03:18:37.362Z,82.10
2017-07-29T03:21:04.898Z,82.00
2017-07-29T03:23:32.460Z,82.10
2017-07-29T03:26:00.027Z,82.20
2017-07-29T03:28:27.565Z,82.10
2017-07-29T03:30:55.136Z,82.30
2017-07-29T03:33:23.435Z,82.20
2017-07-29T03:35:51.373Z,82.20
2017-07-29T03:38:18.938Z,82.60
2017-07-29T03:40:46.540Z,82.20
2017-07-29T03:43:14.976Z,83.10
2017-07-29T03:45:42.561Z,83.10
2017-07-29T03:48:11.095Z,83.20
2017-07-29T03:50:38.736Z,83.10
2017-07-29T03:53:06.295Z,83.10
2017-07-29T03:55:33.815Z,83.50
2017-07-29T03:58:01.391Z,83.20
2017-07-29T04:00:28.920Z,82.90
2017-07-29T04:02:56.491Z,83.10
2017-07-29T04:05:24.018Z,82.70
2017-07-29T04:07:51.587Z,82.80
2017-07-29T04:10:19.119Z,83.00
2017-07-29T04:12:46.679Z,82.90
2017-07-29T04:15:14.215Z,82.90
2017-07-29T04:17:41.782Z,83.10
2017-07-29T04:20:10.074Z,83.40
2017-07-29T04:22:37.635Z,83.20
2017-07-29T04:25:05.163Z,83.30
2017-07-29T04:27:32.728Z,83.00
2017-07-29T04:30:00.291Z,83.30
2017-07-29T04:32:27.823Z,83.00
2017-07-29T04:34:55.383Z,82.90
2017-07-29T04:37:22.915Z,83.00
2017-07-29T04:39:50.499Z,83.20
2017-07-29T04:42:18.797Z,83.40
2017-07-29T04:44:46.357Z,83.30
2017-07-29T04:47:13.888Z,84.10
2017-07-29T04:49:41.462Z,83.80
2017-07-29T04:52:08.990Z,84.00
2017-07-29T04:54:36.555Z,83.50
2017-07-29T04:57:04.925Z,83.40
2017-07-29T04:59:32.503Z,83.40
2017-07-29T05:02:00.042Z,83.30
2017-07-29T05:04:28.390Z,83.00
2017-07-29T05:06:55.929Z,82.90
2017-07-29T05:09:23.511Z,83.20
2017-07-29T05:11:51.059Z,83.10
2017-07-29T05:14:18.643Z,83.20
2017-07-29T05:16:46.171Z,83.10
2017-07-29T05:19:13.701Z,82.70
2017-07-29T05:21:41.263Z,81.90
2017-07-29T05:24:08.831Z,82.40
2017-07-29T05:26:36.467Z,83.00
2017-07-29T05:29:04.201Z,82.40
2017-07-29T05:31:31.775Z,82.00
2017-07-29T05:33:59.312Z,81.50
2017-07-29T05:36:26.891Z,81.20
2017-07-29T05:38:55.541Z,81.30
2017-07-29T05:41:23.196Z,81.20
2017-07-29T05:43:50.797Z,81.00
2017-07-29T05:46:18.368Z,80.00
2017-07-29T05:48:45.902Z,79.60
2017-07-29T05:51:13.465Z,79.50
2017-07-29T05:53:40.993Z,79.30
2017-07-29T05:56:08.550Z,79.40
2017-07-29T05:58:36.075Z,78.50
2017-07-29T06:01:03.644Z,78.50
2017-07-29T06:03:31.174Z,78.60
2017-07-29T06:05:59.065Z,77.40
2017-07-29T06:08:27.371Z,77.20
2017-07-29T06:10:54.934Z,77.10
2017-07-29T06:13:22.491Z,75.50
2017-07-29T06:15:50.055Z,76.10
2017-07-29T06:18:17.587Z,75.70
2017-07-29T06:20:45.147Z,75.20
2017-07-29T06:23:12.672Z,75.10
2017-07-29T06:25:40.240Z,74.40
2017-07-29T06:28:08.531Z,72.00
2017-07-29T06:30:36.095Z,71.50
2017-07-29T06:33:03.624Z,70.80
2017-07-29T06:35:31.193Z,70.60
2017-07-29T06:37:58.803Z,71.80
2017-07-29T06:40:26.580Z,73.70
2017-07-29T06:42:54.135Z,72.80
2017-07-29T06:45:21.706Z,74.30
2017-07-29T06:47:49.251Z,75.10
2017-07-29T06:50:16.843Z,73.90
2017-07-29T06:52:45.302Z,73.30
2017-07-29T06:55:12.831Z,73.00
2017-07-29T06:57:40.398Z,74.10
2017-07-29T07:00:07.932Z,72.50
2017-07-29T07:02:35.499Z,71.40
2017-07-29T07:05:03.033Z,71.40
2017-07-29T07:07:30.599Z,69.70
2017-07-29T07:09:58.130Z,70.30
2017-07-29T07:12:26.380Z,68.90
2017-07-29T07:14:53.940Z,68.90
2017-07-29T07:17:21.522Z,71.10
2017-07-29T07:19:49.054Z,71.60
2017-07-29T07:22:16.615Z,71.90
2017-07-29T07:24:44.152Z,72.40
2017-07-29T07:27:11.719Z,71.30
2017-07-29T07:29:39.255Z,71.20
2017-07-29T07:32:06.843Z,72.40
2017-07-29T07:34:34.381Z,71.50
2017-07-29T07:37:01.911Z,71.90
2017-07-29T07:39:29.476Z,70.70
2017-07-29T07:41:57.007Z,69.70
2017-07-29T07:44:24.588Z,68.00
2017-07-29T07:46:52.898Z,67.90
2017-07-29T07:49:20.467Z,67.80
2017-07-29T07:51:48.332Z,67.90
2017-07-29T07:54:15.922Z,68.70
2017-07-29T07:56:43.555Z,67.60
2017-07-29T07:59:13.605Z,69.30
2017-07-29T08:01:41.785Z,69.30
2017-07-29T08:04:09.423Z,68.00
2017-07-29T08:06:36.952Z,60.00
2017-07-29T08:09:04.561Z,58.70
2017-07-29T08:11:32.189Z,57.80
2017-07-29T08:14:00.607Z,54.80
2017-07-29T08:16:28.214Z,54.70
2017-07-29T08:18:56.652Z,52.20
2017-07-29T08:21:24.278Z,52.20
2017-07-29T08:23:51.856Z,50.70
2017-07-29T08:26:19.391Z,53.10
2017-07-29T08:28:46.947Z,55.60
2017-07-29T08:31:14.475Z,57.60
2017-07-29T08:33:42.057Z,58.60
2017-07-29T08:36:09.616Z,52.40
2017-07-29T08:38:37.179Z,56.50
2017-07-29T08:41:04.713Z,59.80
2017-07-29T08:43:32.284Z,61.60
2017-07-29T08:45:59.828Z,61.80
2017-07-29T08:48:27.391Z,59.90
2017-07-29T08:50:54.946Z,63.80
2017-07-29T08:53:22.528Z,58.70
2017-07-29T08:55:50.067Z,55.80
2017-07-29T08:58:17.647Z,59.30
2017-07-29T09:00:45.180Z,59.20
2017-07-29T09:03:12.740Z,54.30
2017-07-29T09:05:40.272Z,52.70
2017-07-29T09:08:07.840Z,55.30
2017-07-29T09:10:35.377Z,54.20
2017-07-29T09:13:02.951Z,53.70
2017-07-29T09:15:30.483Z,53.00
2017-07-29T09:17:58.041Z,53.40
2017-07-29T09:20:25.584Z,52.60
2017-07-29T09:22:53.163Z,51.80
2017-07-29T09:25:20.704Z,52.20
2017-07-29T09:27:48.271Z,51.70
2017-07-29T09:30:15.802Z,51.80
2017-07-29T09:32:43.359Z,52.60
2017-07-29T09:35:10.892Z,51.90
2017-07-29T09:37:38.418Z,51.80
2017-07-29T09:40:05.982Z,51.80
2017-07-29T09:42:33.516Z,52.40
2017-07-29T09:45:01.083Z,51.10
2017-07-29T09:47:28.612Z,50.00
2017-07-29T09:49:56.188Z,50.30
2017-07-29T09:52:23.729Z,49.90
2017-07-29T09:54:51.292Z,48.50
2017-07-29T09:57:18.823Z,49.90
2017-07-29T09:59:46.383Z,49.30
2017-07-29T10:02:13.916Z,49.10
2017-07-29T10:04:41.479Z,49.70
2017-07-29T10:07:09.016Z,49.60
2017-07-29T10:09:36.579Z,48.70
2017-07-29T10:12:04.107Z,49.60
2017-07-29T10:14:31.667Z,48.80
2017-07-29T10:16:59.199Z,47.90
2017-07-29T10:19:26.775Z,47.30
2017-07-29T10:21:55.085Z,47.40
2017-07-29T10:24:22.672Z,47.40
2017-07-29T10:26:50.293Z,49.60
2017-07-29T10:29:17.823Z,48.00
2017-07-29T10:31:45.391Z,46.40
2017-07-29T10:34:12.979Z,46.10
2017-07-29T10:36:41.271Z,46.80
2017-07-29T10:39:08.794Z,46.70
2017-07-29T10:41:36.359Z,47.50
2017-07-29T10:44:03.888Z,47.60
2017-07-29T10:46:31.451Z,47.50
2017-07-29T10:48:58.975Z,46.70
2017-07-29T10:51:26.547Z,47.20
2017-07-29T10:53:54.081Z,45.90
2017-07-29T10:56:21.659Z,45.40
2017-07-29T10:58:49.192Z,46.70
2017-07-29T11:01:16.759Z,45.40
2017-07-29T11:03:44.287Z,46.00
2017-07-29T11:06:11.861Z,45.30
2017-07-29T11:08:40.155Z,45.90
2017-07-29T11:11:07.727Z,45.40
2017-07-29T11:13:35.251Z,45.80
2017-07-29T11:16:02.815Z,45.50
2017-07-29T11:18:30.336Z,44.70
2017-07-29T11:20:57.902Z,46.90
2017-07-29T11:23:25.431Z,45.70
2017-07-29T11:25:53.002Z,44.70
2017-07-29T11:28:20.526Z,45.00
2017-07-29T11:30:48.095Z,45.40
2017-07-29T11:33:15.624Z,46.30
2017-07-29T11:35:43.187Z,46.40
2017-07-29T11:38:10.729Z,46.00
2017-07-29T11:40:38.291Z,45.60
2017-07-29T11:43:05.823Z,45.40
2017-07-29T11:45:33.395Z,44.80
2017-07-29T11:48:00.925Z,44.20
2017-07-29T11:50:28.452Z,44.60
2017-07-29T11:52:56.015Z,46.50
2017-07-29T11:55:23.560Z,44.30
2017-07-29T11:57:51.147Z,43.60
2017-07-29T12:00:18.753Z,43.20
2017-07-29T12:02:46.315Z,44.10
2017-07-29T12:05:13.843Z,43.90
2017-07-29T12:07:41.419Z,45.50
2017-07-29T12:10:09.713Z,44.20
2017-07-29T12:12:37.278Z,44.20
2017-07-29T12:15:04.815Z,45.30
2017-07-29T12:17:32.374Z,43.60
2017-07-29T12:19:59.903Z,44.80
2017-07-29T12:22:27.475Z,43.40
2017-07-29T12:24:55.004Z,42.30
2017-07-29T12:27:22.572Z,43.00
2017-07-29T12:29:50.099Z,45.90
2017-07-29T12:32:17.656Z,44.80
2017-07-29T12:34:45.183Z,45.20
2017-07-29T12:37:12.748Z,42.10
2017-07-29T12:39:40.287Z,43.20
2017-07-29T12:42:07.846Z,45.00
2017-07-29T12:44:35.376Z,44.80
2017-07-29T12:47:02.939Z,42.40
2017-07-29T12:49:30.659Z,44.10
2017-07-29T12:51:58.297Z,44.60
2017-07-29T12:54:25.833Z,44.80
2017-07-29T12:56:53.403Z,44.00
2017-07-29T12:59:20.931Z,43.30
2017-07-29T13:01:48.586Z,42.90
2017-07-29T13:04:16.115Z,43.00
2017-07-29T13:06:43.695Z,43.90
2017-07-29T13:09:11.218Z,44.40
2017-07-29T13:11:38.753Z,45.60
2017-07-29T13:14:06.323Z,43.60
2017-07-29T13:16:33.904Z,43.80
2017-07-29T13:19:01.435Z,42.60
2017-07-29T13:21:29.723Z,44.50
2017-07-29T13:23:57.295Z,44.40
2017-07-29T13:26:24.823Z,42.40
2017-07-29T13:28:52.405Z,43.20
2017-07-29T13:31:19.952Z,43.60
2017-07-29T13:33:47.511Z,44.50
2017-07-29T13:36:15.040Z,43.30
2017-07-29T13:38:42.612Z,41.90
2017-07-29T13:41:10.924Z,43.20
2017-07-29T13:43:38.500Z,43.20
2017-07-29T13:46:06.028Z,44.10
2017-07-29T13:48:33.595Z,45.60
2017-07-29T13:51:01.130Z,46.70
2017-07-29T13:53:28.703Z,41.80
2017-07-29T13:55:57.002Z,43.20
2017-07-29T13:58:24.658Z,42.80
2017-07-29T14:00:52.191Z,42.40
2017-07-29T14:03:19.756Z,44.90
2017-07-29T14:05:47.292Z,41.00
2017-07-29T14:08:14.861Z,40.70
2017-07-29T14:10:42.438Z,40.70
2017-07-29T14:13:10.017Z,42.20
2017-07-29T14:15:37.578Z,42.60
2017-07-29T14:18:05.133Z,43.90
2017-07-29T14:20:32.690Z,43.70
2017-07-29T14:23:00.226Z,41.10
2017-07-29T14:25:27.791Z,42.70
2017-07-29T14:27:55.327Z,44.30
2017-07-29T14:30:22.895Z,41.80
2017-07-29T14:32:51.196Z,42.30
2017-07-29T14:35:18.775Z,41.70
2017-07-29T14:37:46.302Z,44.00
2017-07-29T14:40:13.868Z,39.50
2017-07-29T14:42:41.395Z,44.00
2017-07-29T14:45:08.951Z,42.80
2017-07-29T14:47:36.475Z,42.90
2017-07-29T14:50:04.035Z,42.50
2017-07-29T14:52:31.603Z,45.60
2017-07-29T14:54:59.142Z,42.10
2017-07-29T14:57:26.739Z,39.00
2017-07-29T14:59:54.317Z,38.70
2017-07-29T15:02:21.935Z,40.90
2017-07-29T15:04:49.476Z,39.00
2017-07-29T15:07:17.045Z,39.10
2017-07-29T15:09:44.572Z,39.40
2017-07-29T15:12:12.245Z,41.10
2017-07-29T15:14:39.796Z,42.10
2017-07-29T15:17:07.407Z,37.60
2017-07-29T15:19:34.932Z,39.80
2017-07-29T15:22:02.499Z,40.50
2017-07-29T15:24:30.056Z,40.80
2017-07-29T15:26:57.635Z,43.30
2017-07-29T15:29:25.179Z,44.20
2017-07-29T15:31:52.800Z,44.30
2017-07-29T15:34:20.332Z,43.30
2017-07-29T15:36:47.899Z,42.00
2017-07-29T15:39:15.423Z,44.10
2017-07-29T15:41:43.092Z,44.00
2017-07-29T15:44:10.708Z,44.40
2017-07-29T15:46:38.364Z,45.40
2017-07-29T15:49:05.966Z,44.60
2017-07-29T15:51:33.534Z,46.70
2017-07-29T15:54:01.086Z,45.60
2017-07-29T15:56:28.670Z,46.30
2017-07-29T15:58:56.286Z,46.50
2017-07-29T16:01:23.866Z,48.60
2017-07-29T16:03:51.517Z,48.10
2017-07-29T16:06:19.859Z,48.30
2017-07-29T16:08:47.432Z,48.30
2017-07-29T16:11:15.005Z,49.00
2017-07-29T16:13:43.312Z,50.20
2017-07-29T16:16:10.842Z,50.10
2017-07-29T16:18:38.421Z,49.80
2017-07-29T16:21:06.020Z,49.20
2017-07-29T16:23:33.611Z,49.60
2017-07-29T16:26:01.141Z,50.50
2017-07-29T16:28:28.726Z,52.80
2017-07-29T16:30:57.086Z,52.60
2017-07-29T16:33:24.664Z,52.60
2017-07-29T16:35:52.208Z,54.20
2017-07-29T16:38:19.784Z,54.10
2017-07-29T16:40:47.331Z,53.20
2017-07-29T16:43:14.905Z,54.20
2017-07-29T16:45:42.448Z,54.30
2017-07-29T16:48:10.011Z,56.50
2017-07-29T16:50:38.316Z,56.90
2017-07-29T16:53:06.020Z,56.80
2017-07-29T16:55:34.320Z,56.60
2017-07-29T16:58:01.851Z,56.60
2017-07-29T17:00:29.454Z,58.00
2017-07-29T17:02:57.062Z,57.80
2017-07-29T17:05:24.621Z,58.50
2017-07-29T17:07:52.182Z,59.20
2017-07-29T17:10:19.765Z,58.90
2017-07-29T17:12:48.059Z,59.70
2017-07-29T17:15:15.631Z,59.60
2017-07-29T17:17:43.161Z,60.50
2017-07-29T17:20:10.724Z,60.40
2017-07-29T17:22:38.264Z,62.20
2017-07-29T17:25:05.839Z,62.30
2017-07-29T17:27:34.273Z,64.10
2017-07-29T17:30:01.817Z,64.10
2017-07-29T17:32:29.391Z,63.20
2017-07-29T17:34:56.946Z,64.20
2017-07-29T17:37:25.426Z,63.70
2017-07-29T17:39:52.988Z,63.70
2017-07-29T17:42:20.533Z,64.50
2017-07-29T17:44:48.111Z,64.30
2017-07-29T17:47:15.643Z,65.20
2017-07-29T17:49:43.208Z,66.70
2017-07-29T17:52:10.743Z,66.30
2017-07-29T17:54:38.308Z,67.20
2017-07-29T17:57:05.835Z,65.40
2017-07-29T17:59:33.412Z,65.70
2017-07-29T18:02:00.954Z,66.10
2017-07-29T18:04:29.394Z,68.40
2017-07-29T18:06:56.928Z,67.90
2017-07-29T18:09:24.496Z,68.40
2017-07-29T18:11:52.075Z,67.90
2017-07-29T18:14:19.633Z,67.00
2017-07-29T18:16:47.194Z,66.60
2017-07-29T18:19:14.731Z,66.40
2017-07-29T18:21:42.300Z,66.80
2017-07-29T18:24:09.840Z,66.50
2017-07-29T18:26:37.411Z,66.50
2017-07-29T18:29:04.947Z,67.20
2017-07-29T18:31:32.520Z,67.60
2017-07-29T18:34:00.074Z,68.30
2017-07-29T18:36:28.383Z,68.30
2017-07-29T18:38:55.958Z,68.30
2017-07-29T18:41:23.525Z,68.30
2017-07-29T18:43:51.907Z,69.60
2017-07-29T18:46:19.471Z,69.50
2017-07-29T18:48:47.039Z,69.90
2017-07-29T18:51:14.575Z,69.70
2017-07-29T18:53:42.151Z,69.80
2017-07-29T18:56:09.684Z,69.70
2017-07-29T18:58:37.361Z,69.80
2017-07-29T19:01:05.663Z,70.20
2017-07-29T19:03:33.197Z,70.10
2017-07-29T19:06:00.763Z,70.20
2017-07-29T19:08:28.313Z,70.90
2017-07-29T19:10:55.935Z,70.60
2017-07-29T19:13:23.538Z,71.50
2017-07-29T19:15:52.047Z,71.80
2017-07-29T19:18:19.663Z,71.80
2017-07-29T19:20:47.981Z,72.20
2017-07-29T19:23:15.567Z,72.20
2017-07-29T19:25:43.868Z,72.70
2017-07-29T19:28:11.423Z,72.60
2017-07-29T19:30:38.963Z,73.00
2017-07-29T19:33:06.632Z,72.80
2017-07-29T19:35:34.176Z,72.70
2017-07-29T19:38:01.710Z,72.90
2017-07-29T19:40:29.413Z,73.00
2017-07-29T19:42:57.014Z,73.30
2017-07-29T19:45:24.690Z,73.50
2017-07-29T19:47:53.272Z,73.50
2017-07-29T19:50:20.876Z,73.20
2017-07-29T19:52:48.815Z,73.60
2017-07-29T19:55:16.352Z,73.40
2017-07-29T19:57:43.914Z,73.20
2017-07-29T20:00:11.456Z,73.60
2017-07-29T20:02:39.088Z,73.70
2017-07-29T20:05:06.627Z,73.50
2017-07-29T20:07:34.192Z,74.40
2017-07-29T20:10:01.748Z,74.90
2017-07-29T20:12:29.363Z,74.50
2017-07-29T20:14:56.993Z,74.80
2017-07-29T20:17:24.749Z,74.40
2017-07-29T20:19:52.626Z,74.00
2017-07-29T20:22:20.504Z,74.80
2017-07-29T20:24:48.037Z,74.30
2017-07-29T20:27:15.603Z,74.50
2017-07-29T20:29:43.200Z,74.60
2017-07-29T20:32:12.739Z,74.50
2017-07-29T20:34:40.529Z,74.90
2017-07-29T20:37:09.573Z,75.10
2017-07-29T20:39:38.253Z,74.80
2017-07-29T20:42:06.237Z,75.30
2017-07-29T20:44:33.787Z,75.00
2017-07-29T20:47:01.366Z,75.00
2017-07-29T20:49:29.013Z,74.90
2017-07-29T20:51:56.729Z,75.00
2017-07-29T20:54:24.750Z,75.40
2017-07-29T20:56:53.163Z,75.30
2017-07-29T20:59:20.781Z,75.50
2017-07-29T21:01:48.376Z,75.90
2017-07-29T21:04:15.904Z,75.80
2017-07-29T21:06:43.486Z,75.90
2017-07-29T21:09:11.008Z,76.60
2017-07-29T21:13:34.273Z,76.10
2017-07-29T21:16:01.888Z,76.40
2017-07-29T21:18:29.685Z,76.50
2017-07-29T21:20:58.162Z,76.90
2017-07-29T21:23:25.824Z,76.80
2017-07-29T21:25:53.468Z,77.40
2017-07-29T21:28:21.067Z,77.60
2017-07-29T21:30:48.679Z,77.70
2017-07-29T21:33:16.247Z,77.60
2017-07-29T21:35:43.828Z,77.50
2017-07-29T21:38:11.364Z,77.70
2017-07-29T21:40:38.931Z,78.30
2017-07-29T21:43:07.274Z,78.10
2017-07-29T21:45:34.815Z,78.10
2017-07-29T21:48:02.409Z,78.50
2017-07-29T21:50:30.103Z,79.00
2017-07-29T21:52:58.584Z,79.70
2017-07-29T21:55:26.250Z,78.70
2017-07-29T21:57:54.776Z,78.50
2017-07-29T22:00:23.366Z,78.40
2017-07-29T22:02:51.071Z,78.70
2017-07-29T22:05:18.642Z,78.40
2017-07-29T22:07:46.195Z,78.80
2017-07-29T22:10:13.776Z,78.20
2017-07-29T22:12:41.315Z,78.50
2017-07-29T22:15:09.677Z,78.60
2017-07-29T22:17:37.992Z,79.10
2017-07-29T22:22:39.507Z,79.20
2017-07-29T22:25:07.079Z,79.40
2017-07-29T22:27:34.623Z,79.70
2017-07-29T22:30:02.206Z,79.90
2017-07-29T22:32:29.800Z,79.60
2017-07-29T22:34:57.423Z,79.70
2017-07-29T22:37:25.074Z,79.40
2017-07-29T22:39:52.764Z,79.40
2017-07-29T22:42:21.117Z,79.30
2017-07-29T22:44:48.661Z,79.10
2017-07-29T22:47:16.238Z,79.80
2017-07-29T22:49:43.778Z,79.50
2017-07-29T22:52:11.360Z,79.50
2017-07-29T22:54:39.658Z,79.20
2017-07-29T22:57:07.223Z,79.10
2017-07-29T22:59:34.784Z,80.00
2017-07-29T23:02:02.364Z,79.60
2017-07-29T23:04:30.020Z,79.80
2017-07-29T23:06:57.709Z,79.80
2017-07-29T23:09:25.346Z,80.10
2017-07-29T23:11:52.972Z,79.80
2017-07-29T23:14:20.535Z,79.80
2017-07-29T23:16:48.105Z,79.80
2017-07-29T23:19:15.647Z,79.50
2017-07-29T23:21:43.219Z,79.70
2017-07-29T23:24:11.526Z,79.50
2017-07-29T23:26:39.091Z,79.40
2017-07-29T23:29:06.624Z,79.10
2017-07-29T23:31:34.203Z,79.00
2017-07-29T23:34:01.788Z,79.60
2017-07-29T23:36:29.417Z,79.50
2017-07-29T23:38:57.089Z,78.70
2017-07-29T23:41:25.004Z,79.10
2017-07-29T23:43:53.439Z,79.30
2017-07-29T23:46:21.088Z,79.90
2017-07-29T23:48:48.727Z,79.20
2017-07-29T23:51:16.294Z,79.10
2017-07-29T23:53:43.831Z,79.60
2017-07-29T23:56:11.394Z,81.10
2017-07-29T23:58:38.927Z,80.20
